Terminal Aerodrome Forecast
Issued by NWS

Home | Current Version | Previous Version | Text Only | Print | Product List | Glossary On
Versions: 1 2 3 4 5 6 7 8 9 10 11 12 13 14 15 16 17 18 19 20 21 22 23 24 25 26 27
000
FTUS43 KMKX 191134
TAFUES
TAF
KUES 191134Z 1912/2012 11007KT P6SM FEW250
     FM191500 14011KT P6SM FEW250
     FM191800 14013G17KT P6SM FEW250
     FM200000 15009KT P6SM FEW250
     FM200900 18007KT P6SM BKN150=

USA.gov is the U.S. government's official web portal to all federal, state and local government web resources and services.